Time;durP1;ratioP1;P1;durP2;ratioP2;P2;SDS_P1;SDS_P2;PMS_P1;PMS_P2;Temp;Humidity;BMP_temperature;BMP_pressure;BME280_temperature;BME280_humidity;BME280_pressure;Samples;Min_cycle;Max_cycle;Signal;HPM_P1;HPM_P2
2024/02/24 00:00:07;;;;;;;2.25;0.52;;;;;;;13.96;44.97;99196.75;4938121;29;20075;-67
2024/02/24 00:02:33;;;;;;;1.45;0.98;;;;;;;13.95;44.96;99195.94;4938185;29;20060;-68
2024/02/24 00:04:58;;;;;;;3.53;0.95;;;;;;;13.97;45.49;99190.34;4938195;29;20062;-67
2024/02/24 00:07:24;;;;;;;2.75;0.93;;;;;;;14.02;44.54;99195.97;4938948;28;20040;-67
2024/02/24 00:09:49;;;;;;;2.15;0.52;;;;;;;14.01;45.34;99191.63;4937894;29;20032;-67
2024/02/24 00:12:15;;;;;;;2.92;2.13;;;;;;;14.01;46.00;99191.63;4937773;29;20042;-67
2024/02/24 00:14:40;;;;;;;1.20;0.60;;;;;;;13.99;45.40;99183.75;4937895;29;20047;-68
2024/02/24 00:17:05;;;;;;;0.63;0.43;;;;;;;14.02;45.75;99188.75;4937881;29;20072;-67
2024/02/24 00:19:31;;;;;;;0.70;0.50;;;;;;;14.00;44.93;99184.56;4937710;29;20032;-67
2024/02/24 00:21:57;;;;;;;3.40;0.55;;;;;;;14.05;44.57;99192.06;4937515;29;20047;-67
2024/02/24 00:24:22;;;;;;;0.68;0.68;;;;;;;14.02;45.65;99185.22;4937560;29;20047;-67
2024/02/24 00:26:47;;;;;;;1.25;0.52;;;;;;;14.04;45.45;99174.28;4939243;29;20024;-68
2024/02/24 00:29:13;;;;;;;0.75;0.50;;;;;;;14.05;45.70;99192.91;4937633;29;20543;-68
2024/02/24 00:31:38;;;;;;;1.50;0.80;;;;;;;14.06;45.41;99181.13;4953309;29;20032;-68
2024/02/24 00:34:03;;;;;;;1.05;0.50;;;;;;;14.08;45.93;99189.84;4937042;29;20400;-68
2024/02/24 00:36:29;;;;;;;0.57;0.20;;;;;;;14.07;45.67;99193.53;4938958;29;20024;-68
2024/02/24 00:38:54;;;;;;;1.85;0.68;;;;;;;14.10;45.37;99195.84;4936281;29;20095;-67
2024/02/24 00:41:20;;;;;;;0.73;0.40;;;;;;;14.07;45.20;99200.81;4939162;29;20118;-67
2024/02/24 00:43:45;;;;;;;1.00;0.45;;;;;;;14.07;45.23;99203.50;4940350;29;20028;-67
2024/02/24 00:46:10;;;;;;;2.17;0.35;;;;;;;14.07;44.80;99196.22;4923252;29;20123;-67
2024/02/24 00:48:36;;;;;;;0.75;0.40;;;;;;;14.06;46.01;99194.59;4937053;29;20140;-67
2024/02/24 00:51:01;;;;;;;2.40;0.50;;;;;;;14.06;44.85;99199.13;4937106;29;20048;-68
2024/02/24 00:53:27;;;;;;;1.58;0.40;;;;;;;14.04;45.30;99199.34;4936891;29;20658;-68
2024/02/24 00:55:52;;;;;;;0.63;0.30;;;;;;;14.03;45.21;99200.34;4937007;29;20147;-67
2024/02/24 00:58:18;;;;;;;0.88;0.40;;;;;;;14.04;45.44;99198.50;4937482;29;20045;-67
2024/02/24 01:00:43;;;;;;;3.03;0.65;;;;;;;14.02;45.90;99209.44;4938403;29;20492;-67
2024/02/24 01:03:08;;;;;;;3.50;0.68;;;;;;;14.01;45.18;99202.41;4936716;29;20028;-67
2024/02/24 01:05:33;;;;;;;1.55;0.35;;;;;;;14.00;45.90;99201.56;4937440;29;20392;-67
2024/02/24 01:07:59;;;;;;;2.25;0.30;;;;;;;14.00;46.05;99198.03;4938251;29;20032;-67
2024/02/24 01:10:28;;;;;;;0.47;0.30;;;;;;;14.01;45.78;99202.41;4938901;29;20114;-67
2024/02/24 01:12:54;;;;;;;0.80;0.40;;;;;;;14.03;45.55;99203.03;4939492;29;20031;-67
2024/02/24 01:15:19;;;;;;;0.75;0.40;;;;;;;14.01;45.07;99203.22;4923480;29;20107;-67
2024/02/24 01:17:45;;;;;;;1.25;0.68;;;;;;;14.00;44.59;99200.72;4955360;29;20039;-67
2024/02/24 01:20:10;;;;;;;1.67;0.45;;;;;;;14.01;46.12;99205.09;4938612;29;20039;-67
2024/02/24 01:22:35;;;;;;;1.40;0.45;;;;;;;13.99;46.41;99201.75;4936863;29;20508;-67
2024/02/24 01:25:01;;;;;;;0.80;0.50;;;;;;;13.97;45.97;99191.19;4952962;29;20559;-68
2024/02/24 01:27:26;;;;;;;0.63;0.50;;;;;;;13.97;46.07;99199.25;4936334;29;20043;-67
2024/02/24 01:29:52;;;;;;;0.68;0.38;;;;;;;14.01;46.43;99197.03;4936669;29;20087;-67
2024/02/24 01:32:19;;;;;;;0.82;0.30;;;;;;;13.98;45.19;99195.56;4936737;29;20036;-67
2024/02/24 01:34:45;;;;;;;0.70;0.45;;;;;;;14.01;45.75;99189.75;4935878;29;20476;-67
2024/02/24 01:37:10;;;;;;;0.30;0.30;;;;;;;14.01;45.50;99197.03;4936181;29;20111;-67
2024/02/24 01:39:36;;;;;;;1.42;0.60;;;;;;;14.00;45.34;99196.19;4951989;29;20407;-67
2024/02/24 01:42:01;;;;;;;1.13;0.30;;;;;;;14.01;44.92;99189.75;4936312;29;20059;-68
2024/02/24 01:44:27;;;;;;;0.20;0.20;;;;;;;14.00;45.32;99185.41;4936160;29;20043;-68
2024/02/24 01:46:52;;;;;;;0.10;0.10;;;;;;;14.02;46.17;99198.66;4936250;29;20130;-68
2024/02/24 01:49:17;;;;;;;0.40;0.32;;;;;;;14.00;46.35;99201.56;4935504;29;20031;-67
2024/02/24 01:51:44;;;;;;;0.30;0.30;;;;;;;13.98;44.71;99200.09;4935971;29;20086;-68
2024/02/24 01:54:10;;;;;;;0.38;0.38;;;;;;;13.97;46.13;99196.56;4936182;29;20047;-67
2024/02/24 01:56:37;;;;;;;0.38;0.17;;;;;;;13.94;45.24;99196.09;4920374;29;20040;-67
2024/02/24 01:59:03;;;;;;;0.20;0.20;;;;;;;13.93;45.54;99200.66;4937474;29;20055;-67
2024/02/24 02:01:29;;;;;;;0.57;0.30;;;;;;;13.91;45.35;99204.56;4935927;29;20055;-67
2024/02/24 02:03:54;;;;;;;2.33;0.17;;;;;;;13.91;45.35;99208.09;4936212;29;20028;-67
2024/02/24 02:06:21;;;;;;;0.35;0.17;;;;;;;13.92;45.26;99206.25;4937439;29;20094;-67
2024/02/24 02:08:47;;;;;;;0.28;0.20;;;;;;;13.93;45.76;99211.41;4936057;29;20035;-68
2024/02/24 02:11:12;;;;;;;1.05;0.30;;;;;;;13.88;45.83;99207.63;4951785;29;20059;-67
2024/02/24 02:13:37;;;;;;;0.20;0.10;;;;;;;13.88;45.96;99213.00;4951844;29;20032;-67
2024/02/24 02:16:03;;;;;;;4.60;0.20;;;;;;;13.90;45.21;99216.38;4936765;29;20028;-67
2024/02/24 02:18:28;;;;;;;0.20;0.20;;;;;;;13.93;45.22;99222.19;4935646;29;20089;-67
2024/02/24 02:20:54;;;;;;;0.60;0.30;;;;;;;13.93;46.31;99229.44;4935505;29;20036;-67
2024/02/24 02:23:19;;;;;;;0.17;0.17;;;;;;;13.95;45.35;99227.41;4935671;29;20028;-67
2024/02/24 02:25:45;;;;;;;0.40;0.38;;;;;;;13.96;45.09;99227.19;4935508;29;20035;-67
2024/02/24 02:28:10;;;;;;;3.80;0.50;;;;;;;13.98;45.02;99237.78;4935409;29;20159;-68
2024/02/24 02:30:35;;;;;;;0.52;0.28;;;;;;;13.95;46.51;99228.25;4935493;29;20043;-68
2024/02/24 02:33:01;;;;;;;0.50;0.17;;;;;;;13.94;45.79;99223.03;4936891;29;20044;-68
2024/02/24 02:35:27;;;;;;;1.08;0.38;;;;;;;13.98;46.00;99229.72;4935697;29;20099;-67
2024/02/24 02:37:52;;;;;;;0.57;0.10;;;;;;;13.99;44.92;99225.97;4951496;29;20043;-68
2024/02/24 02:40:18;;;;;;;0.32;0.32;;;;;;;13.97;45.69;99214.56;4936804;29;20036;-68
2024/02/24 02:42:44;;;;;;;0.30;0.30;;;;;;;13.99;46.44;99225.97;4935567;29;20031;-68
2024/02/24 02:45:09;;;;;;;0.57;0.50;;;;;;;13.95;45.85;99224.72;4951666;29;20039;-68
2024/02/24 02:47:38;;;;;;;0.35;0.30;;;;;;;13.96;45.17;99220.97;4935606;29;20070;-67
2024/02/24 02:50:04;;;;;;;2.10;0.45;;;;;;;13.93;46.29;99227.56;4936515;29;20512;-67
2024/02/24 02:52:30;;;;;;;0.70;0.32;;;;;;;13.91;45.56;99232.31;4935830;29;20035;-68
2024/02/24 02:54:55;;;;;;;1.90;0.55;;;;;;;13.90;45.21;99222.56;4936582;29;20040;-68
2024/02/24 02:57:23;;;;;;;0.60;0.55;;;;;;;13.88;45.06;99235.38;4935021;29;20110;-68
2024/02/24 02:59:48;;;;;;;0.43;0.40;;;;;;;13.88;45.79;99230.00;4919556;29;20036;-68
2024/02/24 03:02:13;;;;;;;0.93;0.40;;;;;;;13.90;45.90;99232.53;4937980;29;20035;-68
2024/02/24 03:04:39;;;;;;;1.60;0.60;;;;;;;13.93;46.09;99232.16;4939153;29;20126;-68
2024/02/24 03:07:04;;;;;;;0.50;0.40;;;;;;;13.92;46.13;99227.78;4939160;29;20091;-68
2024/02/24 03:09:29;;;;;;;1.75;0.55;;;;;;;13.94;45.92;99228.41;4939367;29;20147;-68
2024/02/24 03:11:55;;;;;;;0.70;0.30;;;;;;;13.97;45.74;99233.41;4940263;29;20060;-68
2024/02/24 03:14:20;;;;;;;3.13;0.82;;;;;;;13.93;46.41;99232.94;4940439;29;20048;-68
2024/02/24 03:16:46;;;;;;;0.57;0.35;;;;;;;13.93;45.68;99232.94;4939265;29;20039;-68
2024/02/24 03:19:11;;;;;;;0.85;0.70;;;;;;;13.91;46.33;99242.25;4939172;29;20112;-68
2024/02/24 03:21:36;;;;;;;1.95;0.40;;;;;;;13.85;46.13;99237.59;4939098;29;20050;-68
2024/02/24 03:24:02;;;;;;;0.40;0.40;;;;;;;13.87;46.80;99240.97;4938987;29;20047;-68
2024/02/24 03:26:28;;;;;;;1.02;0.47;;;;;;;13.85;46.15;99238.44;4922967;29;20500;-68
2024/02/24 03:28:53;;;;;;;4.20;0.82;;;;;;;13.89;45.78;99241.59;4938674;29;20492;-67
2024/02/24 03:31:19;;;;;;;0.40;0.40;;;;;;;13.88;45.80;99237.22;4954664;29;20046;-68
2024/02/24 03:33:44;;;;;;;1.10;0.80;;;;;;;13.88;45.16;99239.94;4938356;29;20103;-67
2024/02/24 03:36:14;;;;;;;0.40;0.40;;;;;;;13.88;45.28;99245.31;4922729;29;20514;-68
2024/02/24 03:38:40;;;;;;;0.50;0.50;;;;;;;13.87;45.82;99247.16;4922880;29;20079;-68
2024/02/24 03:41:06;;;;;;;0.30;0.20;;;;;;;13.89;45.88;99247.84;4938377;29;20048;-68
2024/02/24 03:43:31;;;;;;;1.30;0.22;;;;;;;13.85;45.19;99251.91;4938651;29;20411;-67
2024/02/24 03:45:56;;;;;;;0.73;0.32;;;;;;;13.88;45.81;99258.78;4939777;29;20059;-68
2024/02/24 03:48:22;;;;;;;2.28;0.60;;;;;;;13.87;46.20;99260.63;4954391;29;20412;-67
2024/02/24 03:50:48;;;;;;;0.68;0.60;;;;;;;13.88;45.02;99256.06;4954448;29;20114;-68
2024/02/24 03:53:13;;;;;;;0.30;0.30;;;;;;;13.90;46.08;99265.63;4922485;29;20055;-68
2024/02/24 03:55:38;;;;;;;1.50;0.35;;;;;;;13.86;46.25;99260.81;4939651;29;20048;-67
2024/02/24 03:58:04;;;;;;;0.40;0.38;;;;;;;13.85;45.48;99257.28;4922498;29;20032;-68
2024/02/24 04:00:34;;;;;;;1.08;0.57;;;;;;;13.86;46.04;99258.97;4939332;29;20437;-67
2024/02/24 04:03:00;;;;;;;2.08;0.52;;;;;;;13.88;46.10;99261.47;4938300;29;20579;-67
2024/02/24 04:05:25;;;;;;;0.43;0.40;;;;;;;13.86;45.69;99258.97;4938045;29;20115;-67
2024/02/24 04:07:50;;;;;;;0.30;0.20;;;;;;;13.84;45.53;99261.03;4938035;29;20519;-68
2024/02/24 04:10:16;;;;;;;0.90;0.40;;;;;;;13.84;46.35;99270.94;4938216;29;20492;-68
2024/02/24 04:12:41;;;;;;;0.52;0.30;;;;;;;13.84;45.76;99265.56;4922123;29;20098;-67
2024/02/24 04:15:07;;;;;;;0.40;0.40;;;;;;;13.86;46.65;99271.59;4938032;29;20040;-67
2024/02/24 04:17:32;;;;;;;0.30;0.30;;;;;;;13.87;46.21;99270.59;4938106;29;20505;-68
2024/02/24 04:19:58;;;;;;;1.15;0.30;;;;;;;13.83;46.39;99271.97;4938138;29;20044;-67
2024/02/24 04:22:23;;;;;;;0.52;0.32;;;;;;;13.85;46.21;99288.75;4938389;29;20036;-67
2024/02/24 04:24:48;;;;;;;0.10;0.10;;;;;;;13.80;46.13;99270.50;4939616;29;20040;-68
2024/02/24 04:27:14;;;;;;;0.30;0.30;;;;;;;13.84;45.74;99269.09;4939040;29;20039;-67
2024/02/24 04:29:39;;;;;;;1.63;0.30;;;;;;;13.85;45.28;99267.22;4939074;29;20115;-67
2024/02/24 04:32:04;;;;;;;1.92;0.20;;;;;;;13.84;45.71;99271.78;4938042;29;20107;-67
2024/02/24 04:34:30;;;;;;;0.63;0.20;;;;;;;13.78;46.06;99277.91;4939167;29;20055;-67
2024/02/24 04:36:55;;;;;;;0.40;0.30;;;;;;;13.80;46.66;99292.00;4954482;29;20087;-67
2024/02/24 04:39:20;;;;;;;0.25;0.20;;;;;;;13.79;45.84;99289.53;4939208;29;20039;-67
2024/02/24 04:41:46;;;;;;;4.45;0.47;;;;;;;13.77;46.43;99286.16;4923653;29;20047;-67
2024/02/24 04:44:11;;;;;;;0.10;0.10;;;;;;;13.80;46.80;99280.41;4940925;29;20040;-67
2024/02/24 04:46:38;;;;;;;0.20;0.20;;;;;;;13.81;45.87;99300.94;4940599;29;20046;-68
2024/02/24 04:49:03;;;;;;;0.32;0.30;;;;;;;13.79;45.13;99284.94;4940199;29;20517;-67
2024/02/24 04:51:29;;;;;;;0.15;0.15;;;;;;;13.80;45.36;99291.19;4938531;29;20040;-67
2024/02/24 04:53:55;;;;;;;1.02;0.30;;;;;;;13.80;45.10;99300.09;4937176;29;20039;-67
2024/02/24 04:56:20;;;;;;;3.42;0.25;;;;;;;13.78;45.38;99301.31;4937429;29;20043;-67
2024/02/24 04:58:45;;;;;;;0.88;0.45;;;;;;;13.75;44.90;99304.38;4921439;29;20428;-68
2024/02/24 05:01:11;;;;;;;0.50;0.30;;;;;;;13.70;46.31;99306.78;4938449;29;20039;-67
2024/02/24 05:03:36;;;;;;;0.50;0.30;;;;;;;13.67;45.85;99299.94;4938264;29;20034;-67
2024/02/24 05:06:03;;;;;;;0.30;0.25;;;;;;;13.66;44.98;99302.78;4940167;29;20052;-68
2024/02/24 05:08:28;;;;;;;1.98;0.30;;;;;;;13.63;45.97;99305.84;4940190;29;20067;-67
2024/02/24 05:10:54;;;;;;;1.05;0.35;;;;;;;13.64;45.42;99313.75;4939422;29;20095;-68
2024/02/24 05:13:19;;;;;;;0.60;0.45;;;;;;;13.63;46.20;99308.53;4937087;29;20031;-67
2024/02/24 05:15:44;;;;;;;1.10;0.30;;;;;;;13.59;46.65;99309.94;4938284;29;20036;-67
2024/02/24 05:18:10;;;;;;;1.45;0.40;;;;;;;13.57;45.90;99314.69;4921021;29;20503;-67
2024/02/24 05:20:35;;;;;;;0.65;0.40;;;;;;;13.56;46.43;99310.31;4936649;29;20031;-67
2024/02/24 05:23:01;;;;;;;0.52;0.52;;;;;;;13.56;46.06;99315.69;4902073;29;20539;-67
2024/02/24 05:25:27;;;;;;;1.77;0.60;;;;;;;13.52;45.87;99323.28;4918337;29;20073;-67
2024/02/24 05:27:53;;;;;;;2.85;0.50;;;;;;;13.47;45.30;99316.78;4917493;29;20047;-68
2024/02/24 05:30:19;;;;;;;1.38;1.02;;;;;;;13.48;45.92;99321.16;4902303;29;20036;-66
2024/02/24 05:32:44;;;;;;;0.68;0.30;;;;;;;13.45;45.62;99325.06;4918585;29;20505;-67
2024/02/24 05:35:09;;;;;;;0.30;0.30;;;;;;;13.48;46.25;99330.06;4918789;29;20055;-67
2024/02/24 05:37:35;;;;;;;0.40;0.40;;;;;;;13.41;45.73;99329.97;4901828;29;20032;-68
2024/02/24 05:40:00;;;;;;;1.23;0.30;;;;;;;13.43;45.79;99342.41;4918774;29;20504;-67
2024/02/24 05:42:26;;;;;;;0.30;0.30;;;;;;;13.40;44.95;99339.03;4918385;29;20408;-67
2024/02/24 05:44:51;;;;;;;2.05;0.43;;;;;;;13.39;46.09;99341.94;4917293;29;20032;-68
2024/02/24 05:47:17;;;;;;;0.50;0.17;;;;;;;13.38;46.79;99341.09;4901605;29;20123;-67
2024/02/24 05:49:42;;;;;;;1.20;0.43;;;;;;;13.38;45.98;99341.09;4901393;29;20496;-67
2024/02/24 05:52:08;;;;;;;0.20;0.20;;;;;;;13.38;46.38;99341.09;4917273;29;20040;-67
2024/02/24 05:54:33;;;;;;;1.73;0.30;;;;;;;13.39;46.17;99340.09;4901337;29;20062;-67
2024/02/24 05:56:59;;;;;;;0.20;0.20;;;;;;;13.43;46.49;99347.78;4916895;29;20431;-68
2024/02/24 05:59:24;;;;;;;0.20;0.20;;;;;;;13.40;46.04;99339.03;4918015;29;20064;-66
2024/02/24 06:01:49;;;;;;;0.40;0.40;;;;;;;13.44;45.06;99344.91;4917073;29;20108;-67
2024/02/24 06:04:15;;;;;;;0.43;0.40;;;;;;;13.46;45.33;99353.63;4918120;29;20038;-67
2024/02/24 06:06:41;;;;;;;1.08;0.40;;;;;;;13.49;46.11;99355.09;4916720;29;20043;-67
2024/02/24 06:09:06;;;;;;;1.08;0.40;;;;;;;13.43;46.39;99355.84;4917077;29;20115;-67
2024/02/24 06:11:31;;;;;;;0.40;0.17;;;;;;;13.45;46.38;99356.50;4900964;29;20032;-68
2024/02/24 06:13:57;;;;;;;1.05;0.40;;;;;;;13.45;46.39;99357.34;4916825;29;20044;-68
2024/02/24 06:16:22;;;;;;;0.80;0.43;;;;;;;13.46;45.79;99363.53;4916490;29;20095;-67
2024/02/24 06:18:47;;;;;;;0.20;0.17;;;;;;;13.45;45.67;99359.19;4917838;29;20477;-67
2024/02/24 06:21:13;;;;;;;0.40;0.30;;;;;;;13.49;46.45;99368.53;4916588;29;20039;-67
2024/02/24 06:23:38;;;;;;;1.65;0.60;;;;;;;13.48;46.08;99373.13;4918084;29;20127;-67
2024/02/24 06:26:04;;;;;;;1.42;0.40;;;;;;;13.43;46.47;99376.34;4900781;29;20044;-67
2024/02/24 06:28:29;;;;;;;0.50;0.22;;;;;;;13.39;46.53;99380.44;4901129;29;20044;-67
2024/02/24 06:30:54;;;;;;;0.88;0.52;;;;;;;13.36;46.60;99380.78;4918344;29;20090;-68
2024/02/24 06:33:20;;;;;;;1.92;0.52;;;;;;;13.29;46.59;99379.84;4917965;29;20051;-67
2024/02/24 06:35:45;;;;;;;0.98;0.47;;;;;;;13.31;45.62;99387.72;4918249;29;20040;-67
2024/02/24 06:38:10;;;;;;;0.30;0.30;;;;;;;13.28;45.71;99388.94;4918216;29;20049;-68
2024/02/24 06:40:36;;;;;;;0.50;0.45;;;;;;;13.30;46.40;99389.59;4900827;29;20143;-67
2024/02/24 06:43:01;;;;;;;0.35;0.20;;;;;;;13.30;45.90;99388.75;4917166;29;20060;-67
2024/02/24 06:45:26;;;;;;;0.75;0.30;;;;;;;13.31;46.33;99393.94;4916780;29;20056;-68
2024/02/24 06:47:52;;;;;;;1.73;0.30;;;;;;;13.27;46.03;99395.31;4917985;29;20036;-67
2024/02/24 06:50:17;;;;;;;0.30;0.20;;;;;;;13.23;45.92;99399.38;4917977;29;20044;-67
2024/02/24 06:52:43;;;;;;;0.30;0.30;;;;;;;13.22;45.92;99405.78;4916460;29;20044;-67
2024/02/24 06:55:08;;;;;;;0.40;0.40;;;;;;;13.19;46.86;99398.09;4918034;29;20204;-67
2024/02/24 06:57:34;;;;;;;0.73;0.20;;;;;;;13.19;46.76;99408.84;4900669;29;20393;-68
2024/02/24 06:59:59;;;;;;;1.08;0.55;;;;;;;13.18;47.35;99406.31;4900994;29;20070;-68
2024/02/24 07:02:24;;;;;;;0.88;0.35;;;;;;;13.19;47.31;99408.84;4900731;29;20035;-67
2024/02/24 07:04:50;;;;;;;1.45;0.45;;;;;;;13.18;47.00;99419.75;4934885;29;20551;-67
2024/02/24 07:07:15;;;;;;;0.65;0.22;;;;;;;13.19;46.17;99422.28;4920430;29;20030;-68
2024/02/24 07:09:41;;;;;;;0.55;0.20;;;;;;;13.13;45.76;99427.53;4935811;29;20039;-67
2024/02/24 07:12:06;;;;;;;0.63;0.30;;;;;;;13.11;47.46;99433.09;4919958;29;20039;-68
2024/02/24 07:14:33;;;;;;;1.27;0.20;;;;;;;13.06;46.77;99435.47;4951689;29;20043;-68
2024/02/24 07:16:58;;;;;;;0.25;0.25;;;;;;;13.03;47.56;99434.97;4935669;29;20031;-68
2024/02/24 07:19:24;;;;;;;0.08;0.08;;;;;;;13.02;47.58;99441.38;4935543;29;20027;-67
2024/02/24 07:21:49;;;;;;;0.20;0.20;;;;;;;12.99;46.96;99436.34;4935780;29;20554;-67
2024/02/24 07:24:14;;;;;;;0.32;0.30;;;;;;;13.03;46.91;99437.66;4935215;29;20383;-67
2024/02/24 07:26:41;;;;;;;1.77;0.38;;;;;;;13.03;46.57;99454.63;4919400;29;20019;-67
2024/02/24 07:29:06;;;;;;;1.27;0.50;;;;;;;13.03;47.20;99462.72;4934993;29;20028;-67
2024/02/24 07:31:32;;;;;;;1.67;0.57;;;;;;;13.05;46.64;99466.03;4935506;29;20031;-67
2024/02/24 07:33:57;;;;;;;0.43;0.40;;;;;;;13.06;47.00;99473.09;4934686;29;20055;-67
2024/02/24 07:36:24;;;;;;;0.82;0.43;;;;;;;13.04;47.16;99472.41;4936483;28;20078;-67
2024/02/24 07:38:50;;;;;;;3.08;0.77;;;;;;;12.97;47.67;99476.84;4936508;29;20055;-68
2024/02/24 07:41:16;;;;;;;2.08;0.65;;;;;;;12.98;47.52;99483.06;4934795;29;20027;-68
2024/02/24 07:43:41;;;;;;;1.30;0.30;;;;;;;12.95;47.01;99491.47;4936305;29;20032;-67
2024/02/24 07:46:06;;;;;;;0.57;0.30;;;;;;;12.92;46.80;99490.00;4934764;29;20091;-67
2024/02/24 07:48:32;;;;;;;0.75;0.40;;;;;;;12.94;46.89;99487.13;4922193;29;20035;-67
2024/02/24 07:50:57;;;;;;;0.52;0.22;;;;;;;12.96;47.54;99496.66;4939436;29;20032;-67
2024/02/24 07:53:22;;;;;;;1.60;0.47;;;;;;;12.97;47.89;99492.97;4953926;28;20032;-67
2024/02/24 07:55:48;;;;;;;1.20;0.60;;;;;;;12.96;47.29;99499.34;4938264;29;20126;-67
2024/02/24 07:58:13;;;;;;;0.20;0.20;;;;;;;12.96;48.16;99520.00;4939427;29;20086;-65
2024/02/24 08:00:39;;;;;;;1.98;0.60;;;;;;;12.97;47.09;99525.22;4938636;29;20531;-67
2024/02/24 08:03:04;;;;;;;0.20;0.10;;;;;;;12.93;47.73;99523.91;4922518;28;20035;-67
2024/02/24 08:05:29;;;;;;;2.03;0.52;;;;;;;12.95;47.90;99531.81;4938652;29;20106;-67
2024/02/24 08:07:55;;;;;;;2.25;0.30;;;;;;;12.94;47.50;99536.34;4939483;29;20051;-66
2024/02/24 08:10:20;;;;;;;0.35;0.28;;;;;;;12.97;46.69;99538.66;4939555;29;20028;-67
2024/02/24 08:12:45;;;;;;;2.85;0.20;;;;;;;12.94;47.13;99552.47;4941700;29;20039;-68
2024/02/24 08:15:11;;;;;;;3.67;0.73;;;;;;;12.96;47.86;99563.88;4925078;29;20034;-68
2024/02/24 08:17:37;;;;;;;1.35;0.38;;;;;;;12.92;47.36;99554.50;4941420;29;20027;-68
2024/02/24 08:20:03;;;;;;;0.45;0.35;;;;;;;12.94;47.45;99563.22;4939549;29;20039;-68
2024/02/24 08:22:28;;;;;;;0.15;0.13;;;;;;;12.95;47.59;99575.66;4939607;29;20039;-68
2024/02/24 08:24:53;;;;;;;0.55;0.30;;;;;;;12.93;47.58;99569.59;4937996;29;20538;-68
2024/02/24 08:27:19;;;;;;;0.47;0.47;;;;;;;12.90;47.82;99578.00;4954011;29;20039;-69
2024/02/24 08:29:44;;;;;;;0.75;0.75;;;;;;;12.87;47.44;99577.53;4938216;29;20042;-69
2024/02/24 08:32:09;;;;;;;1.60;0.60;;;;;;;12.89;47.02;99587.09;4922182;29;20043;-69
2024/02/24 08:34:35;;;;;;;1.17;0.60;;;;;;;12.93;47.18;99579.50;4938502;29;20127;-69
2024/02/24 08:37:00;;;;;;;0.50;0.50;;;;;;;13.00;47.15;99594.78;4939568;29;20123;-69
2024/02/24 08:39:25;;;;;;;4.15;0.32;;;;;;;12.97;47.36;99583.53;4938013;28;20040;-69
2024/02/24 08:41:51;;;;;;;1.35;0.60;;;;;;;13.00;47.04;99596.63;4939846;29;20035;-69
2024/02/24 08:44:16;;;;;;;1.20;0.50;;;;;;;13.12;46.31;99603.31;4939740;29;20091;-69
2024/02/24 08:46:41;;;;;;;0.85;0.60;;;;;;;13.19;47.05;99591.69;4954047;29;20031;-69
2024/02/24 08:49:07;;;;;;;1.30;0.75;;;;;;;13.26;47.61;99595.31;4922173;29;20106;-69
2024/02/24 08:51:32;;;;;;;1.58;0.60;;;;;;;13.31;45.86;99582.22;4938850;29;20369;-69
2024/02/24 08:53:57;;;;;;;0.40;0.30;;;;;;;13.43;46.08;99602.28;4922453;29;20035;-69
2024/02/24 08:56:24;;;;;;;0.93;0.60;;;;;;;13.51;46.41;99606.81;4940168;29;20087;-69
2024/02/24 08:58:50;;;;;;;1.92;0.45;;;;;;;13.59;46.84;99601.38;4936841;29;20427;-69
2024/02/24 09:01:16;;;;;;;0.95;0.50;;;;;;;13.67;47.00;99619.28;4938588;29;20036;-69
2024/02/24 09:03:42;;;;;;;2.13;0.80;;;;;;;13.75;46.91;99612.00;4939826;29;20040;-69
2024/02/24 09:06:08;;;;;;;0.50;0.50;;;;;;;13.86;46.98;99619.66;4938287;29;20090;-69
2024/02/24 09:08:33;;;;;;;4.85;0.70;;;;;;;13.93;46.50;99625.16;4939341;29;20039;-69
2024/02/24 09:10:59;;;;;;;0.88;0.45;;;;;;;13.96;46.26;99632.84;4937922;29;20040;-69
2024/02/24 09:13:25;;;;;;;0.40;0.40;;;;;;;13.94;46.70;99621.44;4920536;29;20046;-69
2024/02/24 09:15:50;;;;;;;1.70;0.65;;;;;;;13.96;45.78;99630.16;4936048;29;20038;-68
2024/02/24 09:18:18;;;;;;;0.95;0.60;;;;;;;14.02;45.68;99634.84;4937250;29;20547;-68
2024/02/24 09:20:44;;;;;;;3.38;0.63;;;;;;;14.13;45.48;99631.72;4935694;29;20083;-68
2024/02/24 09:23:09;;;;;;;1.63;0.40;;;;;;;14.25;45.66;99629.44;4936147;29;20039;-68
2024/02/24 09:25:34;;;;;;;0.45;0.45;;;;;;;14.48;45.65;99624.88;4935834;29;20484;-68
2024/02/24 09:28:00;;;;;;;1.23;0.50;;;;;;;14.78;45.26;99629.25;4937284;29;20036;-68
2024/02/24 09:30:26;;;;;;;0.88;0.50;;;;;;;14.98;46.06;99621.44;4952249;29;20032;-68
2024/02/24 09:32:53;;;;;;;3.50;0.55;;;;;;;14.97;45.32;99619.75;4937384;29;20043;-69
2024/02/24 09:35:18;;;;;;;0.82;0.43;;;;;;;14.98;45.45;99632.25;4935491;29;20044;-68
2024/02/24 09:37:44;;;;;;;4.47;0.70;;;;;;;15.36;44.22;99633.75;4935668;29;20472;-68
2024/02/24 09:40:10;;;;;;;1.02;0.50;;;;;;;15.82;44.78;99630.78;4951450;29;20127;-68
2024/02/24 09:42:36;;;;;;;3.58;0.60;;;;;;;16.79;43.02;99628.09;4919583;29;20035;-68
2024/02/24 09:45:04;;;;;;;2.50;0.40;;;;;;;17.15;43.44;99627.03;4919644;29;20066;-68
2024/02/24 09:47:30;;;;;;;1.10;0.30;;;;;;;16.85;42.76;99634.59;4935309;29;20031;-68
2024/02/24 09:50:00;;;;;;;0.68;0.47;;;;;;;16.69;44.33;99635.75;4935435;29;20038;-68
2024/02/24 09:52:25;;;;;;;3.20;0.40;;;;;;;16.54;43.13;99631.44;4935320;29;20131;-67
2024/02/24 09:54:51;;;;;;;0.52;0.43;;;;;;;16.48;43.37;99634.91;4936548;29;20495;-68
2024/02/24 09:57:17;;;;;;;2.25;0.50;;;;;;;16.64;43.00;99632.78;4919394;29;20038;-68
2024/02/24 09:59:44;;;;;;;2.33;0.73;;;;;;;17.03;42.64;99643.00;4950784;29;20054;-68
2024/02/24 10:02:11;;;;;;;2.28;0.60;;;;;;;17.07;43.00;99638.03;4935605;29;20071;-68
2024/02/24 10:04:36;;;;;;;0.52;0.43;;;;;;;17.01;43.34;99645.06;4935387;29;20032;-68
2024/02/24 10:07:02;;;;;;;1.00;0.50;;;;;;;17.39;42.35;99648.19;4936405;29;20408;-68
2024/02/24 10:09:27;;;;;;;1.23;0.60;;;;;;;17.44;42.49;99648.41;4935137;29;20106;-68
2024/02/24 10:11:53;;;;;;;4.07;0.50;;;;;;;17.93;40.73;99649.00;4935186;29;20031;-68
2024/02/24 10:14:18;;;;;;;2.13;0.40;;;;;;;17.94;41.45;99664.25;4919305;29;20472;-68
2024/02/24 10:16:46;;;;;;;2.60;0.70;;;;;;;18.13;40.85;99653.63;4936468;29;20032;-68
2024/02/24 10:19:12;;;;;;;0.47;0.35;;;;;;;17.87;40.59;99652.53;4936463;29;20038;-68
2024/02/24 10:21:37;;;;;;;0.70;0.40;;;;;;;18.11;40.63;99648.41;4918905;29;20031;-68
2024/02/24 10:24:03;;;;;;;0.60;0.47;;;;;;;18.96;40.17;99656.53;4919144;29;20032;-68
2024/02/24 10:26:28;;;;;;;2.55;0.75;;;;;;;19.38;40.04;99667.91;4919088;29;20040;-68
2024/02/24 10:28:54;;;;;;;1.58;0.52;;;;;;;19.45;39.40;99660.63;4934945;29;20515;-68
2024/02/24 10:31:22;;;;;;;1.13;0.43;;;;;;;18.97;39.43;99654.66;4918997;29;20062;-68
2024/02/24 10:33:47;;;;;;;1.52;0.30;;;;;;;18.59;39.51;99657.25;4935845;29;20071;-67
2024/02/24 10:36:14;;;;;;;3.58;0.40;;;;;;;18.40;39.92;99666.16;4918743;29;20067;-66
2024/02/24 10:38:40;;;;;;;3.42;0.45;;;;;;;18.09;40.09;99676.78;4935960;29;20083;-67
2024/02/24 10:41:08;;;;;;;0.50;0.28;;;;;;;17.78;40.02;99680.03;4934986;29;20035;-67
2024/02/24 10:43:34;;;;;;;1.13;0.20;;;;;;;17.51;40.71;99668.22;4934937;29;20098;-67
2024/02/24 10:45:59;;;;;;;1.30;0.22;;;;;;;17.25;41.05;99673.53;4935881;29;20039;-67
2024/02/24 10:48:25;;;;;;;0.30;0.20;;;;;;;16.99;40.79;99676.06;4919104;29;20039;-67
2024/02/24 10:50:50;;;;;;;0.38;0.20;;;;;;;16.80;40.55;99686.56;4934863;29;20036;-65
2024/02/24 10:53:18;;;;;;;3.70;0.30;;;;;;;16.57;40.85;99685.13;4934736;29;20031;-68
2024/02/24 10:55:44;;;;;;;3.47;0.40;;;;;;;16.36;42.05;99695.94;4934759;29;20055;-67
2024/02/24 10:58:09;;;;;;;1.10;0.85;;;;;;;16.17;41.68;99700.97;4934714;29;20039;-68
2024/02/24 11:00:35;;;;;;;2.45;0.32;;;;;;;16.30;40.60;99711.06;4934957;29;20404;-68
2024/02/24 11:03:04;;;;;;;2.72;0.50;;;;;;;16.21;41.15;99696.00;4934873;29;20032;-67
2024/02/24 11:05:29;;;;;;;1.65;0.40;;;;;;;16.45;40.74;99697.47;4935968;29;20039;-68
2024/02/24 11:07:54;;;;;;;0.57;0.57;;;;;;;16.29;41.78;99712.09;4935706;29;20032;-68
2024/02/24 11:10:21;;;;;;;1.95;0.30;;;;;;;16.11;41.39;99703.56;4918671;29;20039;-67
2024/02/24 11:12:50;;;;;;;1.38;0.40;;;;;;;15.93;40.36;99727.50;4934474;29;20114;-68
2024/02/24 11:15:25;;;;;;;3.78;0.57;;;;;;;15.71;41.59;99721.22;4934601;29;20075;-67
2024/02/24 11:17:52;;;;;;;4.97;0.60;;;;;;;15.59;41.18;99723.56;4934416;29;20039;-67
2024/02/24 11:20:39;;;;;;;0.40;0.38;;;;;;;15.55;42.02;99735.75;4934612;29;20104;-67
2024/02/24 11:23:33;;;;;;;2.33;0.43;;;;;;;15.52;41.79;99736.13;4936598;29;20040;-68
2024/02/24 11:26:10;;;;;;;0.73;0.30;;;;;;;15.47;41.60;99735.84;4922817;29;20568;-67